Terminal Aerodrome Forecast
Issued by NWS

Home | Current Version | Previous Version | Text Only | Print | Product List | Glossary On
Versions: 1 2 3 4 5 6 7 8 9 10 11 12 13 14 15 16
000
FTUS44 KLUB 290244 AAA
TAFCDS
TAF AMD
KCDS 290244Z 2903/2924 10011KT P6SM SCT080
     FM290800 11011KT P6SM SCT010 BKN025
      TEMPO 2909/2913 4SM -TSRA BKN008CB
     FM291600 17010KT P6SM SCT050 BKN300=

USA.gov is the U.S. government's official web portal to all federal, state and local government web resources and services.